sensor_id;sensor_type;location;lat;lon;timestamp;pressure;altitude;pressure_sealevel;temperature;humidity
43450;BME280;29041;42.266;23.110;2023-01-26T00:24:54;96144.16;;;-0.32;98.81
43450;BME280;29041;42.266;23.110;2023-01-26T00:31:09;96139.69;;;-0.31;99.09
43450;BME280;29041;42.266;23.110;2023-01-26T00:34:24;96123.13;;;-0.26;99.29
43450;BME280;29041;42.266;23.110;2023-01-26T00:41:08;96104.97;;;-0.23;98.46
43450;BME280;29041;42.266;23.110;2023-01-26T00:44:21;96103.47;;;0.04;98.10
43450;BME280;29041;42.266;23.110;2023-01-26T00:47:32;96127.03;;;0.60;96.37
43450;BME280;29041;42.266;23.110;2023-01-26T00:51:05;96121.06;;;-0.02;97.61
43450;BME280;29041;42.266;23.110;2023-01-26T00:54:20;96129.06;;;0.25;98.18
43450;BME280;29041;42.266;23.110;2023-01-26T00:57:15;96102.19;;;-0.11;97.35
43450;BME280;29041;42.266;23.110;2023-01-26T01:08:29;96117.84;;;0.40;96.61
43450;BME280;29041;42.266;23.110;2023-01-26T01:11:38;96134.09;;;0.27;96.44
43450;BME280;29041;42.266;23.110;2023-01-26T01:18:00;96129.84;;;0.26;97.24
43450;BME280;29041;42.266;23.110;2023-01-26T01:20:49;96129.97;;;0.36;96.61
43450;BME280;29041;42.266;23.110;2023-01-26T01:23:39;96106.13;;;0.31;96.66
43450;BME280;29041;42.266;23.110;2023-01-26T01:26:34;96091.97;;;0.15;96.79
43450;BME280;29041;42.266;23.110;2023-01-26T01:29:32;96124.56;;;0.48;95.32
43450;BME280;29041;42.266;23.110;2023-01-26T01:32:20;96136.50;;;0.56;95.03
43450;BME280;29041;42.266;23.110;2023-01-26T01:42:48;96072.44;;;-0.28;98.46
43450;BME280;29041;42.266;23.110;2023-01-26T01:49:33;96093.44;;;-0.17;97.77
43450;BME280;29041;42.266;23.110;2023-01-26T01:52:31;96095.91;;;0.12;96.79
43450;BME280;29041;42.266;23.110;2023-01-26T01:55:32;96101.47;;;-0.06;98.17
43450;BME280;29041;42.266;23.110;2023-01-26T02:04:45;96060.69;;;-0.60;98.64
43450;BME280;29041;42.266;23.110;2023-01-26T02:11:14;96051.00;;;-0.54;98.06
43450;BME280;29041;42.266;23.110;2023-01-26T02:15:03;96065.50;;;-0.12;96.94
43450;BME280;29041;42.266;23.110;2023-01-26T02:18:31;96017.66;;;-0.83;97.95
43450;BME280;29041;42.266;23.110;2023-01-26T03:16:57;95995.41;;;-0.25;96.82
43450;BME280;29041;42.266;23.110;2023-01-26T03:20:18;95980.50;;;-0.59;97.01
43450;BME280;29041;42.266;23.110;2023-01-26T03:28:50;95965.63;;;-0.70;96.30
43450;BME280;29041;42.266;23.110;2023-01-26T03:51:45;95911.47;;;-0.78;96.70
43450;BME280;29041;42.266;23.110;2023-01-26T03:55:19;95920.66;;;-0.81;97.49
43450;BME280;29041;42.266;23.110;2023-01-26T03:58:28;95924.91;;;-0.57;95.39
43450;BME280;29041;42.266;23.110;2023-01-26T04:28:57;95886.16;;;-0.79;98.14
43450;BME280;29041;42.266;23.110;2023-01-26T04:32:03;95928.81;;;-0.38;96.29
43450;BME280;29041;42.266;23.110;2023-01-26T04:38:10;95926.69;;;-0.63;97.45
43450;BME280;29041;42.266;23.110;2023-01-26T04:58:14;95913.97;;;-0.44;96.48
43450;BME280;29041;42.266;23.110;2023-01-26T05:01:04;95929.88;;;-0.61;96.46
43450;BME280;29041;42.266;23.110;2023-01-26T05:03:53;95932.09;;;-0.53;95.51
43450;BME280;29041;42.266;23.110;2023-01-26T05:06:41;95923.09;;;-0.52;95.13
43450;BME280;29041;42.266;23.110;2023-01-26T05:09:35;95911.13;;;-0.65;95.78
43450;BME280;29041;42.266;23.110;2023-01-26T05:16:41;95911.28;;;-0.71;95.63
43450;BME280;29041;42.266;23.110;2023-01-26T05:19:42;95897.94;;;-0.65;94.84
43450;BME280;29041;42.266;23.110;2023-01-26T05:22:30;95902.28;;;-0.75;95.03
43450;BME280;29041;42.266;23.110;2023-01-26T05:25:18;95914.06;;;-0.61;94.40
43450;BME280;29041;42.266;23.110;2023-01-26T05:28:45;95904.16;;;-0.49;94.03
43450;BME280;29041;42.266;23.110;2023-01-26T05:38:19;95854.22;;;-0.83;92.76
43450;BME280;29041;42.266;23.110;2023-01-26T05:41:08;95906.63;;;-0.42;93.05
43450;BME280;29041;42.266;23.110;2023-01-26T05:49:27;95897.69;;;-0.63;93.14
43450;BME280;29041;42.266;23.110;2023-01-26T05:52:50;95907.00;;;-0.28;92.24
43450;BME280;29041;42.266;23.110;2023-01-26T06:01:10;95916.72;;;-0.34;92.22
43450;BME280;29041;42.266;23.110;2023-01-26T06:04:12;95884.44;;;-0.41;92.43
43450;BME280;29041;42.266;23.110;2023-01-26T06:07:15;95904.03;;;-0.37;92.12
43450;BME280;29041;42.266;23.110;2023-01-26T06:10:10;95898.75;;;-0.59;93.18
43450;BME280;29041;42.266;23.110;2023-01-26T06:13:01;95895.72;;;-0.23;92.55
43450;BME280;29041;42.266;23.110;2023-01-26T06:16:22;95840.16;;;-0.66;93.21
43450;BME280;29041;42.266;23.110;2023-01-26T06:22:40;95905.78;;;-0.20;91.55
43450;BME280;29041;42.266;23.110;2023-01-26T06:25:41;95885.84;;;-0.33;92.01
43450;BME280;29041;42.266;23.110;2023-01-26T06:28:54;95872.09;;;-0.35;92.08
43450;BME280;29041;42.266;23.110;2023-01-26T06:34:55;95898.25;;;-0.34;91.65
43450;BME280;29041;42.266;23.110;2023-01-26T06:37:56;95903.13;;;-0.20;92.42
43450;BME280;29041;42.266;23.110;2023-01-26T06:43:23;95894.91;;;0.04;91.50
43450;BME280;29041;42.266;23.110;2023-01-26T06:46:26;95896.75;;;-0.24;91.85
43450;BME280;29041;42.266;23.110;2023-01-26T06:49:48;95855.13;;;-0.17;90.50
43450;BME280;29041;42.266;23.110;2023-01-26T06:52:55;95876.53;;;-0.13;90.38
43450;BME280;29041;42.266;23.110;2023-01-26T06:56:05;95846.31;;;-0.28;90.52
43450;BME280;29041;42.266;23.110;2023-01-26T06:59:05;95866.28;;;-0.10;91.31
43450;BME280;29041;42.266;23.110;2023-01-26T07:02:36;95881.00;;;0.51;91.04
43450;BME280;29041;42.266;23.110;2023-01-26T07:05:51;95833.44;;;-0.24;91.25
43450;BME280;29041;42.266;23.110;2023-01-26T07:08:39;95884.22;;;0.21;91.04
43450;BME280;29041;42.266;23.110;2023-01-26T07:11:27;95878.69;;;0.22;91.57
43450;BME280;29041;42.266;23.110;2023-01-26T07:14:17;95888.75;;;0.25;91.93
43450;BME280;29041;42.266;23.110;2023-01-26T07:28:48;95865.59;;;0.38;96.26
43450;BME280;29041;42.266;23.110;2023-01-26T07:39:56;95846.97;;;-0.15;99.44
43450;BME280;29041;42.266;23.110;2023-01-26T07:43:31;95870.53;;;-0.04;100.00
43450;BME280;29041;42.266;23.110;2023-01-26T07:46:34;95842.00;;;-0.12;100.00
43450;BME280;29041;42.266;23.110;2023-01-26T07:56:59;95862.66;;;-0.31;98.97
43450;BME280;29041;42.266;23.110;2023-01-26T08:00:46;95853.34;;;0.26;99.20
43450;BME280;29041;42.266;23.110;2023-01-26T08:08:01;95821.91;;;0.20;97.73
43450;BME280;29041;42.266;23.110;2023-01-26T08:14:31;95859.97;;;-0.04;96.20
43450;BME280;29041;42.266;23.110;2023-01-26T08:17:34;95814.25;;;0.23;96.98
43450;BME280;29041;42.266;23.110;2023-01-26T08:20:32;95860.97;;;0.55;96.32
43450;BME280;29041;42.266;23.110;2023-01-26T08:23:37;95859.66;;;0.63;96.67
43450;BME280;29041;42.266;23.110;2023-01-26T08:26:37;95864.47;;;0.28;96.87
43450;BME280;29041;42.266;23.110;2023-01-26T08:29:35;95863.13;;;0.26;98.42
43450;BME280;29041;42.266;23.110;2023-01-26T08:32:25;95842.78;;;0.26;98.44
43450;BME280;29041;42.266;23.110;2023-01-26T08:35:15;95882.47;;;0.37;97.69
43450;BME280;29041;42.266;23.110;2023-01-26T08:38:04;95844.84;;;0.57;98.24
43450;BME280;29041;42.266;23.110;2023-01-26T08:41:03;95870.31;;;0.78;97.28
43450;BME280;29041;42.266;23.110;2023-01-26T08:43:53;95860.63;;;-0.24;99.16
43450;BME280;29041;42.266;23.110;2023-01-26T08:47:09;95861.25;;;-0.11;100.00
43450;BME280;29041;42.266;23.110;2023-01-26T08:50:12;95836.56;;;0.00;100.00
43450;BME280;29041;42.266;23.110;2023-01-26T08:53:17;95864.94;;;0.63;99.19
43450;BME280;29041;42.266;23.110;2023-01-26T08:56:12;95856.94;;;0.53;99.41
43450;BME280;29041;42.266;23.110;2023-01-26T08:59:15;95845.38;;;0.59;100.00
43450;BME280;29041;42.266;23.110;2023-01-26T09:02:09;95863.25;;;0.46;100.00
43450;BME280;29041;42.266;23.110;2023-01-26T09:05:15;95847.41;;;0.46;100.00
43450;BME280;29041;42.266;23.110;2023-01-26T09:08:17;95812.00;;;0.05;100.00
43450;BME280;29041;42.266;23.110;2023-01-26T09:11:17;95845.97;;;0.71;100.00
43450;BME280;29041;42.266;23.110;2023-01-26T09:19:42;95777.47;;;0.59;98.66
43450;BME280;29041;42.266;23.110;2023-01-26T09:23:00;95811.81;;;0.59;100.00
43450;BME280;29041;42.266;23.110;2023-01-26T09:26:04;95815.59;;;0.69;98.24
43450;BME280;29041;42.266;23.110;2023-01-26T09:29:25;95804.03;;;0.85;99.03
43450;BME280;29041;42.266;23.110;2023-01-26T09:32:22;95827.63;;;1.07;98.21
43450;BME280;29041;42.266;23.110;2023-01-26T09:38:28;95797.66;;;0.86;97.94
43450;BME280;29041;42.266;23.110;2023-01-26T09:45:43;95813.34;;;1.03;98.38
43450;BME280;29041;42.266;23.110;2023-01-26T09:49:00;95779.16;;;0.81;98.12
43450;BME280;29041;42.266;23.110;2023-01-26T09:52:12;95797.44;;;0.93;99.18
43450;BME280;29041;42.266;23.110;2023-01-26T09:55:22;95765.13;;;0.75;97.76
43450;BME280;29041;42.266;23.110;2023-01-26T09:58:33;95755.28;;;0.55;98.66
43450;BME280;29041;42.266;23.110;2023-01-26T10:01:37;95748.34;;;0.44;98.04
43450;BME280;29041;42.266;23.110;2023-01-26T10:08:01;95760.44;;;0.93;96.10
43450;BME280;29041;42.266;23.110;2023-01-26T10:10:53;95727.94;;;0.92;95.68
43450;BME280;29041;42.266;23.110;2023-01-26T10:13:55;95721.81;;;0.92;94.94
43450;BME280;29041;42.266;23.110;2023-01-26T11:35:06;95609.31;;;2.08;89.35
43450;BME280;29041;42.266;23.110;2023-01-26T11:55:27;95566.66;;;2.10;90.50
43450;BME280;29041;42.266;23.110;2023-01-26T12:01:28;95499.59;;;1.64;90.37
43450;BME280;29041;42.266;23.110;2023-01-26T12:04:34;95494.69;;;1.97;90.28
43450;BME280;29041;42.266;23.110;2023-01-26T12:07:38;95496.63;;;1.81;89.99
43450;BME280;29041;42.266;23.110;2023-01-26T12:10:54;95513.88;;;1.68;90.37
43450;BME280;29041;42.266;23.110;2023-01-26T12:23:25;95483.31;;;1.41;92.52
43450;BME280;29041;42.266;23.110;2023-01-26T12:44:16;95460.56;;;1.30;92.94
43450;BME280;29041;42.266;23.110;2023-01-26T12:47:53;95440.03;;;1.01;93.04
43450;BME280;29041;42.266;23.110;2023-01-26T12:56:36;95483.53;;;1.50;92.07
43450;BME280;29041;42.266;23.110;2023-01-26T13:02:28;95450.78;;;1.36;93.18
43450;BME280;29041;42.266;23.110;2023-01-26T13:27:33;95467.06;;;1.64;91.85
43450;BME280;29041;42.266;23.110;2023-01-26T13:46:37;95462.66;;;1.43;90.51
43450;BME280;29041;42.266;23.110;2023-01-26T13:49:59;95474.53;;;1.46;91.33
43450;BME280;29041;42.266;23.110;2023-01-26T13:53:45;95467.09;;;1.58;90.29
43450;BME280;29041;42.266;23.110;2023-01-26T13:57:09;95444.84;;;1.65;89.13
43450;BME280;29041;42.266;23.110;2023-01-26T14:00:13;95421.78;;;1.65;89.25
43450;BME280;29041;42.266;23.110;2023-01-26T14:13:12;95403.22;;;1.76;88.58
43450;BME280;29041;42.266;23.110;2023-01-26T14:16:21;95414.34;;;1.78;87.34
43450;BME280;29041;42.266;23.110;2023-01-26T14:23:25;95392.19;;;1.58;87.86
43450;BME280;29041;42.266;23.110;2023-01-26T14:26:19;95422.03;;;1.74;87.86
43450;BME280;29041;42.266;23.110;2023-01-26T14:29:26;95406.59;;;1.86;88.42
43450;BME280;29041;42.266;23.110;2023-01-26T14:32:22;95377.47;;;1.47;88.64
43450;BME280;29041;42.266;23.110;2023-01-26T14:35:23;95414.63;;;2.11;88.22
43450;BME280;29041;42.266;23.110;2023-01-26T14:38:15;95378.06;;;1.33;88.82
43450;BME280;29041;42.266;23.110;2023-01-26T14:41:11;95397.81;;;1.46;89.64
43450;BME280;29041;42.266;23.110;2023-01-26T14:44:01;95391.00;;;1.35;89.86
43450;BME280;29041;42.266;23.110;2023-01-26T14:46:55;95344.72;;;1.32;90.04
43450;BME280;29041;42.266;23.110;2023-01-26T14:49:47;95378.31;;;1.37;90.71
43450;BME280;29041;42.266;23.110;2023-01-26T14:52:42;95368.44;;;1.53;90.93
43450;BME280;29041;42.266;23.110;2023-01-26T14:55:32;95374.53;;;1.48;90.93
43450;BME280;29041;42.266;23.110;2023-01-26T14:58:23;95363.41;;;1.51;90.93
43450;BME280;29041;42.266;23.110;2023-01-26T15:01:20;95367.88;;;1.56;91.44
43450;BME280;29041;42.266;23.110;2023-01-26T15:19:31;95300.97;;;1.50;90.85
43450;BME280;29041;42.266;23.110;2023-01-26T15:22:37;95307.63;;;1.48;90.97
43450;BME280;29041;42.266;23.110;2023-01-26T15:25:36;95304.28;;;1.26;91.90
43450;BME280;29041;42.266;23.110;2023-01-26T15:28:59;95281.22;;;1.37;90.11
43450;BME280;29041;42.266;23.110;2023-01-26T15:31:55;95294.38;;;1.48;90.49
43450;BME280;29041;42.266;23.110;2023-01-26T15:35:25;95280.91;;;1.44;88.78
43450;BME280;29041;42.266;23.110;2023-01-26T15:38:33;95310.53;;;1.86;89.08
43450;BME280;29041;42.266;23.110;2023-01-26T15:41:20;95269.66;;;1.23;88.85
43450;BME280;29041;42.266;23.110;2023-01-26T15:44:13;95294.63;;;1.51;89.04
43450;BME280;29041;42.266;23.110;2023-01-26T15:47:02;95268.41;;;1.55;89.56
43450;BME280;29041;42.266;23.110;2023-01-26T15:49:51;95244.75;;;1.29;89.06
43450;BME280;29041;42.266;23.110;2023-01-26T16:25:37;95273.84;;;1.69;90.15
43450;BME280;29041;42.266;23.110;2023-01-26T16:28:26;95262.94;;;1.76;88.66
43450;BME280;29041;42.266;23.110;2023-01-26T16:31:29;95275.50;;;1.94;88.31
43450;BME280;29041;42.266;23.110;2023-01-26T16:34:19;95278.75;;;1.86;88.17
43450;BME280;29041;42.266;23.110;2023-01-26T16:37:16;95231.84;;;1.62;89.03
43450;BME280;29041;42.266;23.110;2023-01-26T16:40:12;95269.69;;;2.21;87.07
43450;BME280;29041;42.266;23.110;2023-01-26T16:43:15;95260.81;;;2.07;87.26
43450;BME280;29041;42.266;23.110;2023-01-26T16:46:04;95233.50;;;2.12;86.40
43450;BME280;29041;42.266;23.110;2023-01-26T16:51:37;95265.88;;;2.03;86.63
43450;BME280;29041;42.266;23.110;2023-01-26T16:54:31;95253.72;;;2.02;87.27
43450;BME280;29041;42.266;23.110;2023-01-26T16:57:23;95201.00;;;1.77;87.60
43450;BME280;29041;42.266;23.110;2023-01-26T17:35:46;95144.91;;;1.74;89.61
43450;BME280;29041;42.266;23.110;2023-01-26T17:39:00;95172.66;;;1.82;90.37
43450;BME280;29041;42.266;23.110;2023-01-26T17:42:06;95167.69;;;1.76;91.57
43450;BME280;29041;42.266;23.110;2023-01-26T17:56:58;95119.97;;;1.81;92.50
43450;BME280;29041;42.266;23.110;2023-01-26T18:02:39;95121.31;;;1.54;93.43
43450;BME280;29041;42.266;23.110;2023-01-26T18:05:50;95145.41;;;1.52;93.82
43450;BME280;29041;42.266;23.110;2023-01-26T18:12:22;95143.53;;;1.53;94.91
43450;BME280;29041;42.266;23.110;2023-01-26T18:20:30;95120.28;;;1.50;95.63
43450;BME280;29041;42.266;23.110;2023-01-26T18:23:37;95134.59;;;1.49;97.29
43450;BME280;29041;42.266;23.110;2023-01-26T18:27:03;95128.84;;;1.41;98.76
43450;BME280;29041;42.266;23.110;2023-01-26T18:30:11;95126.72;;;1.68;97.57
43450;BME280;29041;42.266;23.110;2023-01-26T18:33:08;95112.59;;;1.78;97.44
43450;BME280;29041;42.266;23.110;2023-01-26T18:36:07;95131.25;;;2.16;96.93
43450;BME280;29041;42.266;23.110;2023-01-26T18:39:18;95134.50;;;2.32;94.76
43450;BME280;29041;42.266;23.110;2023-01-26T18:42:07;95116.59;;;1.99;96.61
43450;BME280;29041;42.266;23.110;2023-01-26T18:44:54;95104.66;;;2.02;95.04
43450;BME280;29041;42.266;23.110;2023-01-26T18:47:47;95110.50;;;1.99;96.02
43450;BME280;29041;42.266;23.110;2023-01-26T18:50:35;95099.53;;;1.86;95.56
43450;BME280;29041;42.266;23.110;2023-01-26T18:53:23;95095.13;;;2.01;95.81
43450;BME280;29041;42.266;23.110;2023-01-26T19:09:32;95080.94;;;1.43;97.64
43450;BME280;29041;42.266;23.110;2023-01-26T19:12:47;95095.19;;;1.71;96.77
43450;BME280;29041;42.266;23.110;2023-01-26T19:40:42;95067.13;;;1.22;100.00
43450;BME280;29041;42.266;23.110;2023-01-26T19:43:59;95110.50;;;1.50;100.00
43450;BME280;29041;42.266;23.110;2023-01-26T19:47:25;95088.91;;;1.08;100.00
43450;BME280;29041;42.266;23.110;2023-01-26T19:50:58;95072.94;;;1.24;100.00
43450;BME280;29041;42.266;23.110;2023-01-26T19:54:41;95091.41;;;1.53;100.00
43450;BME280;29041;42.266;23.110;2023-01-26T19:58:13;95102.63;;;1.45;100.00
43450;BME280;29041;42.266;23.110;2023-01-26T20:01:25;95061.28;;;1.25;100.00
43450;BME280;29041;42.266;23.110;2023-01-26T20:04:59;95045.50;;;1.44;100.00
43450;BME280;29041;42.266;23.110;2023-01-26T20:08:03;94979.41;;;1.15;100.00
43450;BME280;29041;42.266;23.110;2023-01-26T20:11:11;95012.72;;;1.16;100.00
43450;BME280;29041;42.266;23.110;2023-01-26T20:23:14;95072.25;;;0.78;100.00
43450;BME280;29041;42.266;23.110;2023-01-26T20:26:21;95033.94;;;0.76;100.00
43450;BME280;29041;42.266;23.110;2023-01-26T20:29:22;95069.06;;;0.82;100.00
43450;BME280;29041;42.266;23.110;2023-01-26T20:32:40;95075.22;;;0.67;100.00
43450;BME280;29041;42.266;23.110;2023-01-26T20:35:39;95068.53;;;0.79;100.00
43450;BME280;29041;42.266;23.110;2023-01-26T21:02:13;95042.28;;;0.59;100.00
43450;BME280;29041;42.266;23.110;2023-01-26T21:05:46;95053.81;;;0.68;100.00
43450;BME280;29041;42.266;23.110;2023-01-26T21:15:56;95026.78;;;0.42;100.00
43450;BME280;29041;42.266;23.110;2023-01-26T22:00:34;95045.81;;;0.78;100.00
43450;BME280;29041;42.266;23.110;2023-01-26T22:04:10;95045.03;;;1.07;100.00
43450;BME280;29041;42.266;23.110;2023-01-26T22:36:13;94965.78;;;0.43;100.00
43450;BME280;29041;42.266;23.110;2023-01-26T22:54:17;94978.53;;;0.66;100.00
43450;BME280;29041;42.266;23.110;2023-01-26T22:57:38;94970.63;;;0.66;100.00
43450;BME280;29041;42.266;23.110;2023-01-26T23:01:06;94974.66;;;0.87;100.00
43450;BME280;29041;42.266;23.110;2023-01-26T23:04:03;94949.47;;;0.71;100.00
43450;BME280;29041;42.266;23.110;2023-01-26T23:06:54;94974.13;;;0.56;100.00
43450;BME280;29041;42.266;23.110;2023-01-26T23:09:54;94960.88;;;0.61;100.00
43450;BME280;29041;42.266;23.110;2023-01-26T23:12:51;94961.63;;;0.37;100.00
43450;BME280;29041;42.266;23.110;2023-01-26T23:15:42;94953.41;;;0.39;100.00
43450;BME280;29041;42.266;23.110;2023-01-26T23:18:53;94982.00;;;0.26;100.00
43450;BME280;29041;42.266;23.110;2023-01-26T23:21:47;94956.88;;;0.34;100.00
43450;BME280;29041;42.266;23.110;2023-01-26T23:24:35;94963.19;;;0.38;100.00
43450;BME280;29041;42.266;23.110;2023-01-26T23:27:24;94946.31;;;0.34;100.00
43450;BME280;29041;42.266;23.110;2023-01-26T23:32:46;94908.84;;;0.32;100.00
43450;BME280;29041;42.266;23.110;2023-01-26T23:35:37;94967.91;;;0.41;100.00
43450;BME280;29041;42.266;23.110;2023-01-26T23:38:31;94952.06;;;0.41;100.00
43450;BME280;29041;42.266;23.110;2023-01-26T23:41:20;94895.28;;;0.09;100.00
43450;BME280;29041;42.266;23.110;2023-01-26T23:44:12;94910.34;;;0.43;100.00
43450;BME280;29041;42.266;23.110;2023-01-26T23:47:00;94931.44;;;0.73;100.00
43450;BME280;29041;42.266;23.110;2023-01-26T23:50:11;94942.09;;;0.92;100.00
43450;BME280;29041;42.266;23.110;2023-01-26T23:53:31;94933.97;;;0.59;100.00
43450;BME280;29041;42.266;23.110;2023-01-26T23:56:19;94912.66;;;0.15;100.00
